Aviation Digital Data Service (ADDS)

Output produced by TAFs form (0648 UTC 03 September 2015)
found at http://aviationweather.gov/adds/tafs/
 
KHOB 030520Z 0306/0406 16010KT P6SM SCT200 
     FM031900 14011G19KT P6SM SCT250 
     FM040100 15009KT P6SM SCT250